createdAt,value
2023-02-15T00:00:09.333Z,0.11
2023-02-15T00:02:37.154Z,0.08
2023-02-15T00:05:06.937Z,0.11
2023-02-15T00:07:34.721Z,0.11
2023-02-15T00:10:02.393Z,0.16
2023-02-15T00:12:30.368Z,0.17
2023-02-15T00:14:58.047Z,0.13
2023-02-15T00:17:26.288Z,0.12
2023-02-15T00:19:53.963Z,0.07
2023-02-15T00:22:23.525Z,0.00
2023-02-15T00:24:51.157Z,-0.02
2023-02-15T00:27:19.121Z,-0.01
2023-02-15T00:29:48.453Z,-0.01
2023-02-15T00:32:17.282Z,0.00
2023-02-15T00:34:45.133Z,0.03
2023-02-15T00:37:13.142Z,0.04
2023-02-15T00:39:42.169Z,0.12
2023-02-15T00:42:10.762Z,-0.02
2023-02-15T00:44:38.451Z,-0.03
2023-02-15T00:47:06.390Z,0.02
2023-02-15T00:49:34.508Z,0.06
2023-02-15T00:52:02.452Z,0.11
2023-02-15T00:54:30.092Z,0.05
2023-02-15T00:56:59.107Z,0.02
2023-02-15T00:59:27.274Z,-0.02
2023-02-15T01:01:54.969Z,-0.01
2023-02-15T01:04:23.110Z,-0.04
2023-02-15T01:06:50.916Z,-0.13
2023-02-15T01:09:19.226Z,-0.12
2023-02-15T01:11:46.917Z,-0.15
2023-02-15T01:14:16.916Z,-0.15
2023-02-15T01:17:07.011Z,-0.13
2023-02-15T01:19:36.865Z,-0.13
2023-02-15T01:22:04.726Z,-0.14
2023-02-15T01:24:36.882Z,-0.11
2023-02-15T01:27:04.720Z,-0.07
2023-02-15T01:29:34.515Z,-0.05
2023-02-15T01:32:02.295Z,-0.04
2023-02-15T01:34:31.685Z,-0.01
2023-02-15T01:36:59.340Z,-0.02
2023-02-15T01:39:27.745Z,-0.06
2023-02-15T01:41:55.413Z,-0.15
2023-02-15T01:44:50.458Z,-0.19
2023-02-15T01:47:22.788Z,-0.27
2023-02-15T01:50:00.946Z,-0.22
2023-02-15T01:52:28.773Z,-0.18
2023-02-15T01:54:58.007Z,-0.18
2023-02-15T01:57:29.519Z,-0.21
2023-02-15T02:00:02.383Z,-0.21
2023-02-15T02:02:40.732Z,-0.16
2023-02-15T02:05:10.226Z,-0.18
2023-02-15T02:07:42.160Z,-0.17
2023-02-15T02:10:14.323Z,-0.20
2023-02-15T02:12:44.371Z,-0.19
2023-02-15T02:15:15.580Z,-0.17
2023-02-15T02:17:54.028Z,-0.16
2023-02-15T02:20:54.875Z,-0.20
2023-02-15T02:23:39.379Z,-0.17
2023-02-15T02:26:39.922Z,-0.15
2023-02-15T02:29:35.699Z,-0.14
2023-02-15T02:32:30.124Z,-0.12
2023-02-15T02:35:07.932Z,-0.12
2023-02-15T02:37:46.503Z,-0.04
2023-02-15T02:40:22.734Z,0.01
2023-02-15T02:42:55.513Z,0.02
2023-02-15T02:45:28.593Z,-0.02
2023-02-15T02:48:03.067Z,-0.07
2023-02-15T02:50:32.849Z,-0.12
2023-02-15T02:53:01.430Z,-0.10
2023-02-15T02:55:35.599Z,-0.10
2023-02-15T02:58:08.051Z,-0.15
2023-02-15T03:00:42.114Z,-0.42
2023-02-15T03:03:15.934Z,-0.49
2023-02-15T03:05:49.207Z,-0.51
2023-02-15T03:08:22.875Z,-0.45
2023-02-15T03:10:56.611Z,-0.45
2023-02-15T03:13:25.395Z,-0.44
2023-02-15T03:16:13.138Z,-0.40
2023-02-15T03:18:45.035Z,-0.43
2023-02-15T03:21:23.359Z,-0.46
2023-02-15T03:23:55.705Z,-0.50
2023-02-15T03:26:26.832Z,-0.42
2023-02-15T03:29:00.136Z,-0.41
2023-02-15T03:31:33.659Z,-0.32
2023-02-15T03:34:05.794Z,-0.31
2023-02-15T03:36:41.300Z,-0.29
2023-02-15T03:39:15.574Z,-0.20
2023-02-15T03:41:50.785Z,-0.16
2023-02-15T03:44:24.561Z,-0.09
2023-02-15T03:46:58.446Z,-0.20
2023-02-15T03:49:30.932Z,-0.22
2023-02-15T03:52:04.717Z,-0.25
2023-02-15T03:54:50.266Z,-0.27
2023-02-15T03:57:38.787Z,-0.30
2023-02-15T04:00:31.980Z,-0.32
2023-02-15T04:03:12.981Z,-0.31
2023-02-15T04:05:42.026Z,-0.28
2023-02-15T04:08:11.931Z,-0.28
2023-02-15T04:10:54.497Z,-0.29
2023-02-15T04:13:22.948Z,-0.31
2023-02-15T04:16:06.411Z,-0.31
2023-02-15T04:18:55.044Z,-0.35
2023-02-15T04:21:43.049Z,-0.47
2023-02-15T04:24:30.724Z,-0.45
2023-02-15T04:26:59.495Z,-0.41
2023-02-15T04:29:28.549Z,-0.44
2023-02-15T04:31:59.651Z,-0.45
2023-02-15T04:34:27.660Z,-0.50
2023-02-15T04:36:55.718Z,-0.56
2023-02-15T04:39:24.751Z,-0.62
2023-02-15T04:41:52.966Z,-0.66
2023-02-15T04:44:20.638Z,-0.75
2023-02-15T04:46:48.299Z,-0.68
2023-02-15T04:49:16.094Z,-0.72
2023-02-15T04:51:44.247Z,-0.66
2023-02-15T04:54:11.925Z,-0.66
2023-02-15T04:56:41.777Z,-0.75
2023-02-15T04:59:11.692Z,-0.74
2023-02-15T05:01:39.716Z,-0.72
2023-02-15T05:04:07.848Z,-0.78
2023-02-15T05:06:36.497Z,-0.95
2023-02-15T05:09:04.802Z,-0.88
2023-02-15T05:11:33.010Z,-0.84
2023-02-15T05:14:04.849Z,-0.77
2023-02-15T05:16:33.002Z,-0.80
2023-02-15T05:19:00.707Z,-0.83
2023-02-15T05:21:28.810Z,-0.70
2023-02-15T05:23:56.460Z,-0.60
2023-02-15T05:26:44.700Z,-0.65
2023-02-15T05:29:13.770Z,-0.75
2023-02-15T05:31:42.062Z,-0.69
2023-02-15T05:34:09.924Z,-0.70
2023-02-15T05:36:38.036Z,-0.80
2023-02-15T05:39:06.832Z,-0.82
2023-02-15T05:41:34.572Z,-0.81
2023-02-15T05:44:04.867Z,-0.83
2023-02-15T05:46:34.303Z,-0.80
2023-02-15T05:49:02.018Z,-0.77
2023-02-15T05:51:29.768Z,-0.76
2023-02-15T05:53:57.428Z,-0.95
2023-02-15T05:56:25.133Z,-0.82
2023-02-15T05:58:54.924Z,-0.86
2023-02-15T06:01:23.880Z,-0.91
2023-02-15T06:03:53.302Z,-0.90
2023-02-15T06:06:21.220Z,-1.03
2023-02-15T06:08:49.443Z,-1.03
2023-02-15T06:11:17.111Z,-1.04
2023-02-15T06:13:45.851Z,-1.11
2023-02-15T06:16:13.580Z,-1.12
2023-02-15T06:18:41.499Z,-1.00
2023-02-15T06:21:10.653Z,-0.87
2023-02-15T06:23:38.919Z,-0.81
2023-02-15T06:26:06.637Z,-0.78
2023-02-15T06:28:34.685Z,-0.80
2023-02-15T06:31:02.543Z,-0.91
2023-02-15T06:33:31.388Z,-0.92
2023-02-15T06:35:59.136Z,-0.90
2023-02-15T06:38:28.614Z,-0.86
2023-02-15T06:40:56.310Z,-0.86
2023-02-15T06:43:24.172Z,-0.79
2023-02-15T06:45:51.837Z,-0.77
2023-02-15T06:48:19.888Z,-0.74
2023-02-15T06:50:47.564Z,-0.69
2023-02-15T06:53:15.942Z,-0.75
2023-02-15T06:55:45.086Z,-0.63
2023-02-15T06:58:13.420Z,-0.63
2023-02-15T07:00:41.066Z,-0.63
2023-02-15T07:03:08.940Z,-0.58
2023-02-15T07:05:36.811Z,-0.47
2023-02-15T07:08:05.518Z,-0.42
2023-02-15T07:10:33.212Z,-0.43
2023-02-15T07:13:01.513Z,-0.40
2023-02-15T07:15:29.169Z,-0.35
2023-02-15T07:17:57.217Z,-0.26
2023-02-15T07:20:25.552Z,-0.47
2023-02-15T07:22:53.738Z,-0.48
2023-02-15T07:25:21.875Z,-0.33
2023-02-15T07:27:50.370Z,-0.31
2023-02-15T07:30:19.633Z,-0.33
2023-02-15T07:33:05.917Z,-0.31
2023-02-15T07:35:34.148Z,-0.31
2023-02-15T07:38:02.252Z,-0.11
2023-02-15T07:40:29.965Z,0.10
2023-02-15T07:43:00.467Z,0.09
2023-02-15T07:45:29.560Z,0.00
2023-02-15T07:47:57.715Z,0.09
2023-02-15T07:50:25.556Z,0.24
2023-02-15T07:52:53.567Z,0.45
2023-02-15T07:55:21.472Z,0.57
2023-02-15T07:57:51.778Z,0.69
2023-02-15T08:00:24.430Z,1.10
2023-02-15T08:03:09.383Z,1.16
2023-02-15T08:05:37.417Z,1.77
2023-02-15T08:08:06.545Z,2.10
2023-02-15T08:10:51.550Z,2.23
2023-02-15T08:13:19.649Z,2.55
2023-02-15T08:15:50.448Z,2.54
2023-02-15T08:18:20.429Z,2.58
2023-02-15T08:20:51.255Z,2.65
2023-02-15T08:23:19.541Z,2.71
2023-02-15T08:25:47.286Z,2.76
2023-02-15T08:28:15.701Z,2.40
2023-02-15T08:30:43.347Z,2.44
2023-02-15T08:33:11.526Z,2.58
2023-02-15T08:35:40.956Z,2.61
2023-02-15T08:38:08.615Z,2.78
2023-02-15T08:40:39.005Z,2.82
2023-02-15T08:43:08.045Z,3.11
2023-02-15T08:45:36.249Z,3.75
2023-02-15T08:48:03.988Z,4.09
2023-02-15T08:50:31.854Z,4.10
2023-02-15T08:53:00.889Z,4.02
2023-02-15T08:55:29.128Z,3.68
2023-02-15T08:57:56.829Z,3.53
2023-02-15T09:00:26.076Z,3.41
2023-02-15T09:02:54.200Z,3.21
2023-02-15T09:05:22.212Z,3.38
2023-02-15T09:07:50.247Z,3.67
2023-02-15T09:10:20.018Z,4.33
2023-02-15T09:12:48.075Z,4.75
2023-02-15T09:15:15.856Z,5.04
2023-02-15T09:17:43.531Z,5.52
2023-02-15T09:20:11.974Z,5.82
2023-02-15T09:22:39.810Z,6.57
2023-02-15T09:25:07.858Z,7.45
2023-02-15T09:27:37.491Z,8.36
2023-02-15T09:30:05.705Z,8.83
2023-02-15T09:32:33.403Z,9.34
2023-02-15T09:35:01.753Z,9.92
2023-02-15T09:37:29.432Z,10.21
2023-02-15T09:39:57.324Z,10.65
2023-02-15T09:42:44.612Z,10.88
2023-02-15T09:45:27.426Z,11.13
2023-02-15T09:48:09.932Z,11.65
2023-02-15T09:50:48.408Z,12.04
2023-02-15T09:53:39.041Z,12.56
2023-02-15T09:56:12.590Z,12.84
2023-02-15T09:58:50.929Z,13.22
2023-02-15T10:01:35.838Z,13.85
2023-02-15T10:04:20.036Z,14.05
2023-02-15T10:07:02.589Z,14.04
2023-02-15T10:09:44.296Z,14.26
2023-02-15T10:12:27.134Z,14.17
2023-02-15T10:15:12.753Z,14.14
2023-02-15T10:17:58.963Z,14.27
2023-02-15T10:20:35.302Z,14.10
2023-02-15T10:23:16.724Z,14.82
2023-02-15T10:25:49.360Z,15.50
2023-02-15T10:28:20.316Z,15.99
2023-02-15T10:30:52.454Z,16.28
2023-02-15T10:33:39.306Z,16.26
2023-02-15T10:36:21.356Z,16.47
2023-02-15T10:38:58.194Z,16.48
2023-02-15T10:41:38.893Z,16.91
2023-02-15T10:44:19.852Z,17.09
2023-02-15T10:47:07.198Z,17.00
2023-02-15T10:49:50.505Z,17.22
2023-02-15T10:52:32.138Z,17.34
2023-02-15T10:55:09.921Z,17.70
2023-02-15T10:57:52.691Z,17.73
2023-02-15T11:00:26.953Z,17.94
2023-02-15T11:03:17.413Z,17.71
2023-02-15T11:05:56.267Z,18.05
2023-02-15T11:08:27.074Z,18.14
2023-02-15T11:10:58.900Z,18.28
2023-02-15T11:13:30.279Z,18.31
2023-02-15T11:16:03.400Z,18.44
2023-02-15T11:18:36.626Z,18.18
2023-02-15T11:21:11.764Z,17.71
2023-02-15T11:23:45.402Z,17.58
2023-02-15T11:26:22.505Z,17.52
2023-02-15T11:28:56.066Z,17.77
2023-02-15T11:31:27.178Z,18.00
2023-02-15T11:34:00.895Z,17.65
2023-02-15T11:36:34.178Z,17.36
2023-02-15T11:39:06.954Z,16.82
2023-02-15T11:41:40.251Z,16.52
2023-02-15T11:44:12.504Z,15.94
2023-02-15T11:46:40.511Z,15.63
2023-02-15T11:49:24.630Z,15.71
2023-02-15T11:51:54.105Z,15.79
2023-02-15T11:54:28.072Z,15.92
2023-02-15T11:56:57.672Z,16.03
2023-02-15T11:59:31.647Z,16.35
2023-02-15T12:01:59.758Z,16.82
2023-02-15T12:04:34.980Z,16.90
2023-02-15T12:07:13.409Z,16.80
2023-02-15T12:09:50.387Z,16.84
2023-02-15T12:15:14.314Z,16.64
2023-02-15T12:17:50.648Z,16.95
2023-02-15T12:20:31.448Z,17.06
2023-02-15T12:23:04.324Z,17.61
2023-02-15T12:25:37.894Z,17.89
2023-02-15T12:28:17.809Z,17.93
2023-02-15T12:30:45.568Z,17.89
2023-02-15T12:33:18.938Z,17.53
2023-02-15T12:35:50.760Z,17.29
2023-02-15T12:38:26.694Z,17.21
2023-02-15T12:41:01.404Z,17.18
2023-02-15T12:43:33.845Z,17.02
2023-02-15T12:46:21.086Z,16.63
2023-02-15T12:48:49.153Z,16.75
2023-02-15T12:51:18.149Z,17.06
2023-02-15T12:53:46.016Z,17.41
2023-02-15T12:56:13.683Z,17.70
2023-02-15T12:58:42.977Z,17.40
2023-02-15T13:01:16.975Z,17.10
2023-02-15T13:04:00.096Z,17.24
2023-02-15T13:06:31.528Z,17.17
2023-02-15T13:09:07.889Z,16.87
2023-02-15T13:11:36.342Z,16.69
2023-02-15T13:14:18.223Z,16.52
2023-02-15T13:16:49.638Z,15.80
2023-02-15T13:19:20.306Z,14.96
2023-02-15T13:21:51.944Z,14.52
2023-02-15T13:24:24.134Z,14.25
2023-02-15T13:26:53.021Z,14.11
2023-02-15T13:29:25.167Z,14.02
2023-02-15T13:31:54.488Z,13.85
2023-02-15T13:34:26.647Z,13.59
2023-02-15T13:37:04.524Z,13.29
2023-02-15T13:39:40.454Z,13.22
2023-02-15T13:42:22.363Z,13.24
2023-02-15T13:45:02.142Z,13.12
2023-02-15T13:47:36.425Z,13.01
2023-02-15T13:50:21.317Z,12.90
2023-02-15T13:52:59.488Z,12.85
2023-02-15T13:55:39.528Z,12.75
2023-02-15T13:58:42.890Z,12.63
2023-02-15T14:01:16.797Z,12.55
2023-02-15T14:04:12.939Z,12.48
2023-02-15T14:07:06.277Z,12.30
2023-02-15T14:09:47.039Z,12.24
2023-02-15T14:12:36.053Z,12.26
2023-02-15T14:15:28.182Z,12.23
2023-02-15T14:18:05.955Z,12.23
2023-02-15T14:20:46.830Z,12.16
2023-02-15T14:23:31.051Z,12.25
2023-02-15T14:26:04.745Z,12.12
2023-02-15T14:28:40.492Z,12.13
2023-02-15T14:31:10.164Z,12.28
2023-02-15T14:33:41.813Z,12.51
2023-02-15T14:36:12.991Z,12.68
2023-02-15T14:38:54.246Z,12.91
2023-02-15T14:41:29.957Z,13.01
2023-02-15T14:44:09.332Z,13.24
2023-02-15T14:46:43.853Z,13.48
2023-02-15T14:49:14.691Z,13.58
2023-02-15T14:52:08.159Z,13.34
2023-02-15T14:54:59.592Z,13.08
2023-02-15T14:57:35.067Z,13.08
2023-02-15T15:00:26.396Z,13.11
2023-02-15T15:02:55.439Z,13.04
2023-02-15T15:05:27.011Z,13.27
2023-02-15T15:07:56.622Z,13.93
2023-02-15T15:10:43.444Z,14.42
2023-02-15T15:13:39.048Z,14.14
2023-02-15T15:16:30.296Z,13.82
2023-02-15T15:18:59.567Z,13.58
2023-02-15T15:22:04.557Z,13.27
2023-02-15T15:24:53.162Z,12.90
2023-02-15T15:27:45.921Z,12.56
2023-02-15T15:31:03.089Z,12.49
2023-02-15T15:34:07.609Z,12.45
2023-02-15T15:37:14.897Z,12.35
2023-02-15T15:40:30.896Z,12.11
2023-02-15T15:43:55.664Z,11.81
2023-02-15T15:46:44.466Z,11.81
2023-02-15T15:49:16.298Z,11.97
2023-02-15T15:51:46.034Z,12.11
2023-02-15T15:54:17.949Z,12.11
2023-02-15T15:56:48.533Z,12.12
2023-02-15T15:59:22.044Z,12.13
2023-02-15T16:01:51.825Z,12.33
2023-02-15T16:04:28.502Z,12.40
2023-02-15T16:06:56.256Z,12.33
2023-02-15T16:09:27.485Z,12.05
2023-02-15T16:11:59.423Z,11.74
2023-02-15T16:14:31.155Z,11.38
2023-02-15T16:17:02.561Z,11.09
2023-02-15T16:19:35.295Z,10.86
2023-02-15T16:22:04.837Z,10.63
2023-02-15T16:25:01.636Z,10.40
2023-02-15T16:27:37.358Z,10.22
2023-02-15T16:30:27.903Z,9.96
2023-02-15T16:33:06.297Z,9.68
2023-02-15T16:35:35.626Z,9.41
2023-02-15T16:38:03.935Z,9.22
2023-02-15T16:40:42.141Z,9.03
2023-02-15T16:43:17.590Z,8.77
2023-02-15T16:45:46.507Z,8.55
2023-02-15T16:48:22.110Z,8.34
2023-02-15T16:50:53.866Z,8.14
2023-02-15T16:53:25.414Z,7.88
2023-02-15T16:55:56.424Z,7.69
2023-02-15T16:58:37.884Z,7.53
2023-02-15T17:01:10.346Z,7.38
2023-02-15T17:03:40.926Z,7.22
2023-02-15T17:06:22.267Z,7.12
2023-02-15T17:08:50.265Z,7.01
2023-02-15T17:11:19.701Z,6.90
2023-02-15T17:14:15.215Z,6.74
2023-02-15T17:16:45.807Z,6.63
2023-02-15T17:19:18.519Z,6.53
2023-02-15T17:21:51.916Z,6.41
2023-02-15T17:24:23.819Z,6.31
2023-02-15T17:27:00.716Z,6.22
2023-02-15T17:29:36.228Z,6.16
2023-02-15T17:32:05.931Z,6.05
2023-02-15T17:34:48.403Z,5.97
2023-02-15T17:37:26.822Z,5.86
2023-02-15T17:39:59.827Z,5.75
2023-02-15T17:42:28.563Z,5.65
2023-02-15T17:44:56.233Z,5.56
2023-02-15T17:47:27.684Z,5.45
2023-02-15T17:49:56.844Z,5.34
2023-02-15T17:52:27.066Z,5.34
2023-02-15T17:55:26.936Z,5.29
2023-02-15T17:57:55.288Z,5.18
2023-02-15T18:00:40.972Z,5.07
2023-02-15T18:03:28.469Z,5.00
2023-02-15T18:06:16.985Z,4.92
2023-02-15T18:09:01.975Z,4.88
2023-02-15T18:11:40.177Z,4.68
2023-02-15T18:14:09.538Z,4.61
2023-02-15T18:16:41.191Z,4.50
2023-02-15T18:19:14.854Z,4.35
2023-02-15T18:21:43.985Z,4.21
2023-02-15T18:24:17.137Z,4.11
2023-02-15T18:26:44.883Z,4.04
2023-02-15T18:29:12.926Z,3.93
2023-02-15T18:31:41.395Z,3.85
2023-02-15T18:34:22.858Z,3.84
2023-02-15T18:36:53.211Z,3.76
2023-02-15T18:39:30.695Z,3.70
2023-02-15T18:41:59.301Z,3.63
2023-02-15T18:44:27.896Z,3.55
2023-02-15T18:46:56.046Z,3.48
2023-02-15T18:49:23.814Z,3.40
2023-02-15T18:51:54.180Z,3.36
2023-02-15T18:54:24.667Z,3.37
2023-02-15T18:56:56.022Z,3.32
2023-02-15T18:59:25.725Z,3.24
2023-02-15T19:01:54.055Z,3.20
2023-02-15T19:04:24.858Z,3.11
2023-02-15T19:06:55.595Z,3.07
2023-02-15T19:09:25.856Z,3.01
2023-02-15T19:11:55.590Z,2.96
2023-02-15T19:14:27.264Z,2.89
2023-02-15T19:16:56.431Z,2.92
2023-02-15T19:19:24.849Z,2.90
2023-02-15T19:21:54.877Z,2.87
2023-02-15T19:24:26.653Z,2.76
2023-02-15T19:26:54.664Z,2.61
2023-02-15T19:29:29.153Z,2.58
2023-02-15T19:31:57.998Z,2.54
2023-02-15T19:34:25.829Z,2.48
2023-02-15T19:36:56.559Z,2.32
2023-02-15T19:39:28.079Z,2.20
2023-02-15T19:41:56.451Z,2.18
2023-02-15T19:44:25.134Z,2.15
2023-02-15T19:46:52.797Z,2.16
2023-02-15T19:49:21.473Z,2.12
2023-02-15T19:51:49.244Z,1.95
2023-02-15T19:54:32.005Z,1.84
2023-02-15T19:56:59.764Z,1.81
2023-02-15T19:59:28.946Z,1.77
2023-02-15T20:01:57.346Z,1.66
2023-02-15T20:04:25.958Z,1.60
2023-02-15T20:06:56.669Z,1.59
2023-02-15T20:09:27.449Z,1.64
2023-02-15T20:11:56.766Z,1.68
2023-02-15T20:14:25.375Z,1.70
2023-02-15T20:16:53.262Z,1.56
2023-02-15T20:19:20.946Z,1.57
2023-02-15T20:21:54.361Z,1.53
2023-02-15T20:24:25.822Z,1.49
2023-02-15T20:26:53.541Z,1.43
2023-02-15T20:29:23.576Z,1.38
2023-02-15T20:31:54.024Z,1.35
2023-02-15T20:34:23.292Z,1.38
2023-02-15T20:36:52.606Z,1.45
2023-02-15T20:39:20.708Z,1.53
2023-02-15T20:41:48.652Z,1.49
2023-02-15T20:44:23.901Z,1.46
2023-02-15T20:46:53.660Z,1.40
2023-02-15T20:49:21.546Z,1.36
2023-02-15T20:51:49.455Z,1.33
2023-02-15T20:54:19.563Z,1.31
2023-02-15T20:56:48.259Z,1.27
2023-02-15T20:59:26.625Z,1.22
2023-02-15T21:01:58.791Z,1.13
2023-02-15T21:04:31.381Z,1.10
2023-02-15T21:06:59.132Z,1.01
2023-02-15T21:09:26.880Z,0.87
2023-02-15T21:11:56.251Z,0.78
2023-02-15T21:14:27.717Z,0.60
2023-02-15T21:16:55.431Z,0.55
2023-02-15T21:19:25.554Z,0.55
2023-02-15T21:21:54.444Z,0.56
2023-02-15T21:24:26.989Z,0.55
2023-02-15T21:26:55.921Z,0.55
2023-02-15T21:29:29.016Z,0.53
2023-02-15T21:31:58.365Z,0.52
2023-02-15T21:34:26.396Z,0.56
2023-02-15T21:36:54.466Z,0.65
2023-02-15T21:39:23.904Z,0.60
2023-02-15T21:42:11.008Z,0.50
2023-02-15T21:44:57.482Z,0.46
2023-02-15T21:47:44.359Z,0.40
2023-02-15T21:50:33.957Z,0.66
2023-02-15T21:53:02.006Z,1.02
2023-02-15T21:55:31.876Z,1.24
2023-02-15T21:57:59.994Z,1.40
2023-02-15T22:00:30.295Z,1.50
2023-02-15T22:03:00.893Z,1.46
2023-02-15T22:05:31.548Z,1.34
2023-02-15T22:07:59.913Z,1.06
2023-02-15T22:10:31.589Z,0.90
2023-02-15T22:13:01.778Z,0.75
2023-02-15T22:15:36.547Z,0.65
2023-02-15T22:18:05.719Z,0.54
2023-02-15T22:20:33.422Z,0.47
2023-02-15T22:23:01.074Z,0.43
2023-02-15T22:25:29.638Z,0.41
2023-02-15T22:27:57.420Z,0.38
2023-02-15T22:30:28.546Z,0.37
2023-02-15T22:32:59.079Z,0.31
2023-02-15T22:35:29.545Z,0.10
2023-02-15T22:37:57.393Z,0.20
2023-02-15T22:40:29.459Z,0.10
2023-02-15T22:42:58.823Z,0.07
2023-02-15T22:45:28.793Z,0.11
2023-02-15T22:48:00.863Z,0.12
2023-02-15T22:50:30.901Z,0.11
2023-02-15T22:53:00.817Z,0.06
2023-02-15T22:55:31.743Z,-0.03
2023-02-15T22:57:59.819Z,-0.04
2023-02-15T23:00:32.195Z,-0.04
2023-02-15T23:03:02.212Z,-0.04
2023-02-15T23:05:32.083Z,-0.03
2023-02-15T23:07:59.836Z,0.08
2023-02-15T23:10:29.905Z,0.30
2023-02-15T23:13:17.496Z,0.25
2023-02-15T23:15:48.729Z,0.13
2023-02-15T23:18:20.309Z,0.10
2023-02-15T23:20:52.255Z,0.08
2023-02-15T23:23:25.663Z,0.07
2023-02-15T23:25:54.250Z,0.06
2023-02-15T23:28:25.723Z,-0.02
2023-02-15T23:30:55.004Z,0.01
2023-02-15T23:33:28.558Z,0.10
2023-02-15T23:35:56.692Z,0.14
2023-02-15T23:38:26.889Z,0.19
2023-02-15T23:41:15.544Z,-0.06
2023-02-15T23:43:45.575Z,-0.21
2023-02-15T23:46:26.334Z,-0.14
2023-02-15T23:48:55.927Z,-0.17
2023-02-15T23:51:28.428Z,-0.16
2023-02-15T23:53:56.093Z,-0.15
2023-02-15T23:56:24.181Z,-0.03
2023-02-15T23:58:51.925Z,0.07
